岩国飛行場の過去48時間の天気

岩国飛行場 (Iwakuni)

現在時刻: 1/20 00:40 JST (1/19 15:40 UTC) 以下の時間は現地時間です。

過去48時間のMETAR気象情報
時間 風向 風速(m/s) 視程 気温(℃) 湿度(%) 気圧(hPa) 天気現象
19 23:55 北北西 2 10km以上 9.4 59 1017.7 弱い雨
19 22:55 北西 2 10km以上 8.9 61 1018.7
19 21:55 北西 2 10km以上 8.9 61 1019.1
19 20:55 静穏 0 10km以上 8.9 61 1019.9
19 19:55 西 2 10km以上 9.4 63 1020.3
19 18:55 4 10km以上 10 61 1020.2
19 17:55 4 10km以上 11.1 59 1020.6
19 16:55 南西 2 10km以上 11.7 43 1020.6
19 15:55 南南西 4 10km以上 12.8 43 1021.4
19 14:55 南西 4 10km以上 13.3 45 1021.6
19 13:55 南南東 6 10km以上 12.8 52 1022.1
19 12:55 南東 4 10km以上 11.1 61 1023.1
19 11:55 南東 3 10km以上 10 61 1024.8
19 10:55 南東 2 10km以上 8.3 63 1025.9
19 09:55 北北東 2 10km以上 7.8 58 1026.2
19 08:55 北西 3 10km以上 4.4 70 1026.1
19 07:55 北西 4 10km以上 2.8 76 1026.2
19 06:55 北西 3 10km以上 2.2 75 1025.6
19 05:55 北西 3 10km以上 2.2 75 1024.9
19 04:55 北西 3 10km以上 2.8 72 1025.1
19 03:55 北西 3 10km以上 3.3 70 1025
19 02:55 北西 4 10km以上 3.3 70 1025.5
19 01:55 北西 4 10km以上 3.3 70 1025.3
19 00:55 北西 3 10km以上 3.9 67 1025.2
18 22:55 北北西 3 10km以上 5 65 1025.9
18 21:55 北北西 3 10km以上 6.1 57 1025.7
18 20:55 西 4 10km以上 6.7 55 1025.9
18 19:55 西北西 5 10km以上 7.8 49 1025.2
18 18:55 西 4 10km以上 8.3 49 1025.1
18 17:55 西北西 4 10km以上 10 54 1024.4
18 16:55 静穏 0 10km以上 11.7 45 1023.5
18 15:55 南南東 5 10km以上 11.7 52 1022.9
18 14:55 南南東 7 10km以上 11.7 54 1022.6
18 13:55 6 10km以上 12.2 47 1022.7
18 12:55 北東 2 10km以上 12.8 38 1023.6
18 11:55 3 10km以上 11.7 39 1024.6
18 10:55 不定 2 10km以上 10.6 44 1025.7
18 09:55 西 3 10km以上 9.4 48 1026.1
18 08:55 西北西 3 10km以上 6.1 62 1025.3
18 07:55 西北西 4 10km以上 3.9 70 1024.6
18 06:55 西北西 4 10km以上 3.3 70 1023.8
18 05:55 西北西 4 10km以上 3.9 67 1023
18 00:55 北西 3 10km以上 5 62 1022.2
RJOI 191455Z 33004KT 9999 -RA FEW030 SCT045 BKN080 09/02 A3006 RMK RAB51 SLP177 P0000 60000 T00940017 401330022 58020
RJOI 191355Z 31004KT 9999 FEW030 BKN060 BKN100 09/02 A3009 RMK SLP187 T00890017
RJOI 191255Z 32003KT 9999 FEW030 BKN080 BKN100 09/02 A3010 RMK SLP191 T00890017
RJOI 191155Z 00000KT 9999 FEW030 BKN080 09/02 A3012 RMK SLP199 T00890017 10133 20089 58010
RJOI 191055Z 26004KT 9999 FEW030 SCT080 09/03 A3013 RMK SLP203 T00940028
RJOI 190955Z 18008KT 9999 FEW030 SCT045 10/03 A3013 RMK SLP202 T01000028
RJOI 190855Z 19007KT 9999 FEW030 BKN045 11/03 A3014 RMK SLP206 T01110033 56010
RJOI 190755Z 22004KT 9999 FEW030 FEW080 12/M01 A3014 RMK SLP206 T01171006
RJOI 190655Z 21008KT 9999 FEW030 13/01 A3016 RMK SLP214 T01280006
RJOI 190555Z 22008KT 9999 FEW030 13/02 A3017 RMK SLP216 T01330017 10133 20044 56030
RJOI 190455Z 15012KT 9999 FEW030 13/03 A3019 RMK SLP221 T01280033
RJOI 190355Z 14008KT 9999 SCT030 11/04 A3022 RMK SLP231 T01110039
RJOI 190255Z 13005KT 9999 FEW030 SCT120 10/03 A3027 RMK SLP248 T01000028 58014
RJOI 190155Z 13003KT 9999 FEW030 FEW120 08/02 A3030 RMK SLP259 T00830017
RJOI 190055Z 03003KT 9999 FEW030 FEW120 08/00 A3031 RMK SLP262 T00780000
RJOI 182355Z 31006KT 9999 FEW100 FEW200 04/M01 A3030 RMK SLP261 T00441006 10044 20022 51010
RJOI 182255Z 31007KT 9999 FEW030 SCT100 SCT200 03/M01 A3030 RMK SLP262 T00281011
RJOI 182155Z 32005KT 9999 FEW030 SCT200 02/M02 A3029 RMK SLP256 T00221017
RJOI 182055Z 31005KT 9999 FEW030 BKN200 02/M02 A3027 RMK SLP249 T00221017 56003
RJOI 181955Z 32006KT 9999 FEW030 BKN200 03/M02 A3027 RMK SLP251 T00281017
RJOI 181855Z 31006KT 9999 FEW030 BKN200 03/M02 A3027 RMK SLP250 T00331017
RJOI 181755Z 31008KT 9999 FEW030 SCT200 03/M02 A3029 RMK SLP255 T00331017 10072 20033 5////
RJOI 181655Z 31008KT 9999 FEW030 SCT200 03/M02 A3028 RMK SLP253 T00331017
RJOI 181555Z 32006KT 9999 FEW030 SCT200 04/M02 A3028 RMK SLP252 FIRST T00391017
RJOI 181355Z 33005KT 9999 FEW030 BKN200 05/M01 A3030 RMK SLP259 LAST T00501011
RJOI 181255Z 33005KT 9999 FEW030 FEW200 06/M02 A3029 RMK SLP257 T00611017
RJOI 181155Z 27008KT 9999 FEW030 07/M02 A3030 RMK SLP259 T00671017 10122 20061 51014
RJOI 181055Z 30010KT 9999 FEW030 08/M02 A3028 RMK SLP252 T00781022
RJOI 180955Z 26007KT 9999 FEW030 FEW200 08/M02 A3027 RMK SLP251 T00831017
RJOI 180855Z 30007KT 9999 FEW030 10/01 A3025 RMK SLP244 T01000011 51020
RJOI 180755Z 00000KT 9999 SKC 12/00 A3023 RMK SLP235 T01170000
RJOI 180655Z 16010KT 9999 FEW030 12/02 A3021 RMK SLP229 T01170022
RJOI 180555Z 16013KT 9999 FEW030 12/03 A3020 RMK SLP226 T01170028 10133 20067 56020
RJOI 180455Z 17011KT 9999 FEW030 12/01 A3020 RMK SLP227 T01220011
RJOI 180355Z 05003KT 9999 FEW030 13/M01 A3023 RMK SLP236 T01281011
RJOI 180255Z VRB05KT 9999 FEW030 12/M02 A3026 RMK SLP246 T01171017 58007
RJOI 180155Z VRB04KT 9999 FEW030 11/M01 A3029 RMK SLP257 T01061011
RJOI 180055Z 27005KT 9999 FEW030 09/M01 A3030 RMK SLP261 T00941011
RJOI 172355Z 29006KT 9999 FEW030 06/M01 A3028 RMK SLP253 T00611006 10061 20033 52020
RJOI 172255Z 29008KT 9999 FEW030 04/M01 A3026 RMK SLP246 T00391011
RJOI 172155Z 30008KT 9999 FEW030 03/M02 A3023 RMK SLP238 T00331017
RJOI 172055Z 30007KT 9999 FEW030 04/M02 A3021 RMK SLP230 FIRST T00391017 5////
RJOI 171555Z 31006KT 9999 FEW040 SCT060 05/M02 A3019 RMK SLP222 LAST T00501017